Time;durP1;ratioP1;P1;durP2;ratioP2;P2;SDS_P1;SDS_P2;PMS_P1;PMS_P2;Temp;Humidity;BMP_temperature;BMP_pressure;BME280_temperature;BME280_humidity;BME280_pressure;Samples;Min_cycle;Max_cycle;Signal;HPM_P1;HPM_P2
2022/02/17 00:00:42;;;;;;;;;0.00;0.00;;;;;15.41;72.46;100428.81;5062732;28;45307;-64
2022/02/17 00:03:08;;;;;;;;;0.00;0.00;;;;;15.40;72.25;100434.22;5062584;28;45405;-64
2022/02/17 00:05:34;;;;;;;;;1.00;0.00;;;;;15.39;72.24;100424.56;5062252;28;46013;-64
2022/02/17 00:08:00;;;;;;;;;0.00;0.00;;;;;15.38;72.31;100417.59;5062270;28;45383;-64
2022/02/17 00:10:27;;;;;;;;;0.00;0.00;;;;;15.37;72.47;100424.72;5062677;28;45285;-64
2022/02/17 00:12:56;;;;;;;;;0.00;0.00;;;;;15.40;72.24;100436.88;5061140;28;45605;-64
2022/02/17 00:15:22;;;;;;;;;0.25;0.00;;;;;15.40;72.73;100429.75;5062191;28;45409;-64
2022/02/17 00:17:47;;;;;;;;;0.00;0.00;;;;;15.37;73.06;100422.06;5062036;28;45290;-64
2022/02/17 00:20:13;;;;;;;;;0.00;0.00;;;;;15.30;73.39;100416.41;5062206;28;45326;-64
2022/02/17 00:22:39;;;;;;;;;2.00;2.00;;;;;15.27;73.53;100416.69;5062197;28;45271;-64
2022/02/17 00:25:06;;;;;;;;;1.00;0.00;;;;;15.25;73.44;100421.28;5062006;28;45391;-64
2022/02/17 00:27:32;;;;;;;;;0.00;0.00;;;;;15.23;73.65;100447.09;5061677;28;45318;-64
2022/02/17 00:29:58;;;;;;;;;0.00;0.00;;;;;15.22;73.72;100453.38;5062000;28;45292;-64
2022/02/17 00:32:23;;;;;;;;;0.00;0.00;;;;;15.22;73.59;100460.50;5062187;28;45307;-64
2022/02/17 00:34:49;;;;;;;;;0.00;0.00;;;;;15.21;73.92;100472.91;5061967;28;45881;-64
2022/02/17 00:37:14;;;;;;;;;0.00;0.00;;;;;15.21;74.40;100458.81;5067779;28;45256;-64
2022/02/17 00:39:40;;;;;;;;;0.00;0.00;;;;;15.18;74.18;100481.16;5080279;27;45232;-64
2022/02/17 00:42:05;;;;;;;;;0.00;0.00;;;;;15.08;74.86;100462.47;5062384;28;45204;-64
2022/02/17 00:44:31;;;;;;;;;0.00;0.00;;;;;15.05;74.85;100485.75;5061872;28;45881;-64
2022/02/17 00:46:57;;;;;;;;;0.00;0.00;;;;;15.02;75.02;100491.34;5068034;28;45357;-64
2022/02/17 00:49:26;;;;;;;;;0.00;0.00;;;;;15.00;74.86;100499.38;5090640;27;45346;-64
2022/02/17 00:51:52;;;;;;;;;0.00;0.00;;;;;15.01;75.02;100494.97;5082387;28;45333;-64
2022/02/17 00:54:17;;;;;;;;;0.00;0.00;;;;;15.01;74.84;100505.56;5082054;27;45347;-65
2022/02/17 00:56:44;;;;;;;;;0.00;0.00;;;;;15.00;74.87;100512.66;5081793;27;45178;-64
2022/02/17 00:59:11;;;;;;;;;0.00;0.00;;;;;14.99;75.10;100503.00;5082001;27;45397;-64
2022/02/17 01:01:37;;;;;;;;;0.00;0.00;;;;;14.98;74.93;100517.25;5081898;28;45429;-65
2022/02/17 01:04:03;;;;;;;;;0.00;0.00;;;;;14.98;75.19;100521.72;5081677;27;45366;-64
2022/02/17 01:06:28;;;;;;;;;0.50;0.00;;;;;14.95;75.02;100509.56;5081871;28;45357;-64
2022/02/17 01:08:54;;;;;;;;;0.00;0.00;;;;;14.92;74.84;100523.03;5081697;27;45525;-65
2022/02/17 01:11:19;;;;;;;;;0.00;0.00;;;;;14.91;74.74;100528.47;5081871;28;45445;-64
2022/02/17 01:13:45;;;;;;;;;0.00;0.00;;;;;14.90;73.99;100522.34;5081538;28;46156;-64
2022/02/17 01:16:11;;;;;;;;;0.00;0.00;;;;;14.88;74.37;100534.03;5081519;28;45281;-64
2022/02/17 01:18:36;;;;;;;;;0.50;0.00;;;;;14.88;73.34;100515.47;5081863;27;45388;-64
2022/02/17 01:21:03;;;;;;;;;0.00;0.00;;;;;14.85;73.69;100510.41;5072208;27;45351;-64
2022/02/17 01:23:28;;;;;;;;;1.00;0.00;;;;;14.84;73.28;100512.22;5086125;27;45413;-64
2022/02/17 01:25:54;;;;;;;;;0.25;0.00;;;;;14.82;72.91;100514.16;5081434;28;45257;-64
2022/02/17 01:28:20;;;;;;;;;0.00;0.00;;;;;14.82;73.04;100524.75;5076994;27;45370;-64
2022/02/17 01:30:45;;;;;;;;;0.00;0.00;;;;;14.85;73.19;100523.66;5081633;28;45666;-64
2022/02/17 01:33:11;;;;;;;;;1.25;0.00;;;;;14.87;72.56;100551.75;5081345;28;46308;-64
2022/02/17 01:35:36;;;;;;;;;0.00;0.00;;;;;14.89;72.83;100543.69;5081404;28;45276;-64
2022/02/17 01:38:03;;;;;;;;;0.00;0.00;;;;;14.90;72.17;100548.84;5094310;27;45508;-64
2022/02/17 01:40:29;;;;;;;;;0.00;0.00;;;;;14.86;71.59;100576.59;5093098;27;45339;-63
2022/02/17 01:42:55;;;;;;;;;0.00;0.00;;;;;14.82;70.84;100577.78;5081056;28;45480;-63
2022/02/17 01:45:20;;;;;;;;;0.00;0.00;;;;;14.78;69.79;100579.84;5071281;27;45412;-64
2022/02/17 01:47:47;;;;;;;;;0.25;0.00;;;;;14.76;70.07;100587.06;5085952;27;45347;-64
2022/02/17 01:50:13;;;;;;;;;0.00;0.00;;;;;14.73;69.57;100570.56;5089252;27;45484;-64
2022/02/17 01:52:38;;;;;;;;;4.50;0.00;;;;;14.72;69.13;100566.25;5101544;27;45382;-63
2022/02/17 01:55:05;;;;;;;;;0.00;0.00;;;;;14.69;68.95;100588.53;5081255;28;45214;-64
2022/02/17 01:57:30;;;;;;;;;0.50;0.50;;;;;14.69;68.60;100590.31;5081295;28;45466;-64
2022/02/17 01:59:57;;;;;;;;;1.00;0.00;;;;;14.67;68.45;100571.06;5080984;28;45435;-64
2022/02/17 02:02:22;;;;;;;;;1.50;0.00;;;;;14.65;68.20;100594.19;5080910;28;46020;-64
2022/02/17 02:04:48;;;;;;;;;1.00;0.00;;;;;14.65;68.40;100610.94;5081089;28;45231;-64
2022/02/17 02:07:14;;;;;;;;;1.25;0.00;;;;;14.64;68.01;100611.91;5081083;27;45302;-63
2022/02/17 02:09:40;;;;;;;;;2.00;0.00;;;;;14.62;67.76;100597.94;5080861;27;45454;-64
2022/02/17 02:12:07;;;;;;;;;1.50;0.75;;;;;14.59;67.30;100613.22;5080868;27;46078;-64
2022/02/17 02:14:33;;;;;;;;;3.75;0.75;;;;;14.56;66.95;100609.03;5081000;28;45233;-64
2022/02/17 02:16:59;;;;;;;;;4.25;1.00;;;;;14.52;66.69;100626.09;5080742;28;45503;-64
2022/02/17 02:19:25;;;;;;;;;2.75;0.50;;;;;14.48;66.29;100619.38;5081252;28;45367;-64
2022/02/17 02:21:50;;;;;;;;;3.50;0.00;;;;;14.45;65.68;100608.97;5080414;27;46385;-64
2022/02/17 02:24:16;;;;;;;;;1.75;1.00;;;;;14.40;65.38;100608.50;5080743;28;45365;-64
2022/02/17 02:26:42;;;;;;;;;2.75;1.00;;;;;14.37;65.26;100606.91;5080731;28;45374;-64
2022/02/17 02:29:07;;;;;;;;;3.50;0.50;;;;;14.35;64.50;100613.28;5081055;28;45389;-64
2022/02/17 02:31:33;;;;;;;;;1.00;1.00;;;;;14.31;64.12;100604.75;5080412;28;45404;-64
2022/02/17 02:33:59;;;;;;;;;2.50;0.00;;;;;14.30;63.90;100615.44;5080849;27;45314;-64
2022/02/17 02:36:25;;;;;;;;;1.25;0.00;;;;;14.27;63.86;100623.63;5080746;28;45258;-64
2022/02/17 02:38:51;;;;;;;;;1.50;0.25;;;;;14.27;63.77;100620.97;5100330;27;45247;-64
2022/02/17 02:41:18;;;;;;;;;1.25;1.00;;;;;14.23;63.35;100634.47;5084823;27;45358;-64
2022/02/17 02:43:44;;;;;;;;;1.00;0.25;;;;;14.24;63.52;100630.88;5080528;28;45408;-64
2022/02/17 02:46:10;;;;;;;;;2.75;1.75;;;;;14.24;63.66;100641.47;5080422;27;46036;-64
2022/02/17 02:48:35;;;;;;;;;2.50;1.00;;;;;14.27;63.42;100644.84;5084059;27;45199;-64
2022/02/17 02:51:01;;;;;;;;;1.50;0.00;;;;;14.28;63.13;100635.91;5084664;27;45605;-64
2022/02/17 02:53:26;;;;;;;;;2.75;1.00;;;;;14.30;63.51;100652.53;5080467;28;45394;-63
2022/02/17 02:55:52;;;;;;;;;4.00;1.00;;;;;14.33;62.98;100641.72;5080579;28;45464;-63
2022/02/17 02:58:19;;;;;;;;;2.00;0.75;;;;;14.33;62.31;100631.13;5082374;27;45472;-63
2022/02/17 03:00:46;;;;;;;;;4.50;2.00;;;;;14.35;62.82;100637.13;5083732;27;45998;-63
2022/02/17 03:03:12;;;;;;;;;1.50;0.00;;;;;14.34;63.05;100631.00;5083858;27;45227;-63
2022/02/17 03:05:39;;;;;;;;;3.25;0.75;;;;;14.34;62.43;100648.72;5083639;27;45165;-63
2022/02/17 03:08:05;;;;;;;;;1.00;1.00;;;;;14.33;62.04;100647.03;5083965;27;45209;-63
2022/02/17 03:10:31;;;;;;;;;5.75;0.75;;;;;14.31;62.37;100657.75;5083409;27;46316;-63
2022/02/17 03:13:00;;;;;;;;;2.25;1.00;;;;;14.31;61.53;100654.25;5083551;27;45427;-63
2022/02/17 03:15:26;;;;;;;;;2.00;0.00;;;;;14.31;60.93;100652.44;5083734;28;45254;-63
2022/02/17 03:17:52;;;;;;;;;5.00;1.50;;;;;14.33;61.29;100650.50;5076199;27;45255;-63
2022/02/17 03:20:19;;;;;;;;;4.25;1.00;;;;;14.36;61.29;100652.06;5086006;27;45193;-63
2022/02/17 03:22:44;;;;;;;;;5.50;2.00;;;;;14.37;61.12;100662.56;5083783;28;45257;-63
2022/02/17 03:25:13;;;;;;;;;7.25;2.00;;;;;14.37;61.00;100667.84;5083478;27;45200;-63
2022/02/17 03:27:38;;;;;;;;;5.25;2.00;;;;;14.35;60.78;100669.78;5083542;28;45429;-63
2022/02/17 03:30:07;;;;;;;;;5.75;1.50;;;;;14.34;60.38;100646.91;5082935;27;45337;-63
2022/02/17 03:32:34;;;;;;;;;6.50;2.00;;;;;14.31;60.02;100662.19;5083261;27;45305;-63
2022/02/17 03:35:00;;;;;;;;;3.00;1.50;;;;;14.25;59.75;100672.28;5083006;27;45221;-63
2022/02/17 03:37:26;;;;;;;;;4.75;3.00;;;;;14.21;59.52;100677.91;5091154;27;45352;-63
2022/02/17 03:39:51;;;;;;;;;6.00;2.00;;;;;14.17;58.95;100681.78;5099647;27;45573;-63
2022/02/17 03:42:17;;;;;;;;;5.00;2.00;;;;;14.10;58.90;100693.78;5083352;27;45392;-63
2022/02/17 03:44:43;;;;;;;;;13.25;2.00;;;;;14.04;58.13;100687.13;5097129;27;45315;-63
2022/02/17 03:47:09;;;;;;;;;5.00;2.75;;;;;13.99;58.22;100673.41;5075155;27;45398;-64
2022/02/17 03:49:35;;;;;;;;;7.00;1.00;;;;;13.93;57.81;100685.31;5099579;27;46644;-63
2022/02/17 03:52:00;;;;;;;;;7.50;3.00;;;;;13.86;57.34;100699.09;5083013;28;45304;-63
2022/02/17 03:54:26;;;;;;;;;6.75;1.50;;;;;13.82;57.57;100709.06;5083171;28;45312;-64
2022/02/17 03:56:51;;;;;;;;;3.00;2.00;;;;;13.79;57.61;100709.28;5083272;28;45177;-63
2022/02/17 03:59:16;;;;;;;;;6.00;2.50;;;;;13.79;58.01;100742.88;5082639;27;45391;-63
2022/02/17 04:01:42;;;;;;;;;8.25;4.00;;;;;13.76;58.28;100719.28;5082969;27;45276;-63
2022/02/17 04:04:10;;;;;;;;;6.00;3.00;;;;;13.76;58.28;100737.81;5082849;27;45516;-63
2022/02/17 04:06:36;;;;;;;;;12.00;4.50;;;;;13.74;58.14;100739.69;5082962;27;45162;-63
2022/02/17 04:09:03;;;;;;;;;4.00;3.00;;;;;13.74;58.32;100739.69;5077403;27;46870;-63
2022/02/17 04:11:29;;;;;;;;;5.75;3.00;;;;;13.70;58.72;100752.31;5082936;28;45348;-63
2022/02/17 04:13:54;;;;;;;;;5.50;3.00;;;;;13.71;58.71;100751.38;5082664;27;45352;-63
2022/02/17 04:16:20;;;;;;;;;7.25;3.25;;;;;13.70;58.82;100768.22;5082802;28;45524;-63
2022/02/17 04:18:47;;;;;;;;;9.75;4.00;;;;;13.68;58.85;100762.19;5082261;27;46378;-63
2022/02/17 04:21:14;;;;;;;;;7.25;3.75;;;;;13.67;59.76;100761.34;5074546;27;45269;-63
2022/02/17 04:23:44;;;;;;;;;5.00;2.50;;;;;13.65;59.57;100757.94;5085662;27;45229;-63
2022/02/17 04:26:14;;;;;;;;;12.00;2.00;;;;;13.64;59.74;100776.59;5081840;28;45443;-63
2022/02/17 04:28:41;;;;;;;;;8.50;3.00;;;;;13.64;59.83;100773.94;5081970;27;45331;-63
2022/02/17 04:31:07;;;;;;;;;4.00;2.25;;;;;13.62;59.79;100773.22;5082249;28;45408;-63
2022/02/17 04:33:39;;;;;;;;;7.00;4.00;;;;;13.60;59.19;100793.66;5082764;27;45472;-63
2022/02/17 04:36:05;;;;;;;;;11.00;3.00;;;;;13.58;58.98;100792.88;5089739;27;45197;-63
2022/02/17 04:38:31;;;;;;;;;12.50;2.75;;;;;13.53;58.39;100782.66;5098931;27;45452;-63
2022/02/17 04:43:42;;;;;;;;;3.00;0.25;;;;;13.45;57.51;100806.16;5091020;27;45444;-63
2022/02/17 04:46:07;;;;;;;;;6.75;3.25;;;;;13.41;57.11;100810.81;5102593;27;45386;-63
2022/02/17 04:48:34;;;;;;;;;10.00;3.25;;;;;13.38;57.33;100826.06;5102323;27;45397;-63
2022/02/17 04:51:00;;;;;;;;;9.25;3.00;;;;;13.33;56.95;100834.31;5086549;27;45453;-63
2022/02/17 04:53:26;;;;;;;;;11.50;4.25;;;;;13.29;56.90;100851.34;5082283;28;45198;-63
2022/02/17 04:55:52;;;;;;;;;10.50;3.00;;;;;13.23;56.79;100835.91;5081884;28;45418;-62
2022/02/17 04:58:17;;;;;;;;;9.50;5.00;;;;;13.20;56.68;100859.09;5082370;28;45279;-63
2022/02/17 05:00:46;;;;;;;;;10.50;4.75;;;;;13.17;56.45;100875.97;5081776;28;45232;-63
2022/02/17 05:03:12;;;;;;;;;12.00;4.50;;;;;13.15;56.59;100867.28;5082185;27;45371;-63
2022/02/17 05:05:38;;;;;;;;;3.50;3.00;;;;;13.11;56.28;100877.25;5081596;27;45462;-63
2022/02/17 05:08:04;;;;;;;;;5.00;3.00;;;;;13.08;56.45;100880.06;5081965;28;45307;-63
2022/02/17 05:10:30;;;;;;;;;7.00;2.25;;;;;13.06;56.59;100878.50;5081873;27;45410;-63
2022/02/17 05:12:56;;;;;;;;;7.00;3.00;;;;;13.03;56.26;100857.53;5081944;27;45365;-63
2022/02/17 05:15:21;;;;;;;;;6.25;2.75;;;;;12.98;56.36;100870.22;5081722;27;45268;-63
2022/02/17 05:17:47;;;;;;;;;6.75;2.75;;;;;12.97;56.35;100884.41;5081544;28;45239;-63
2022/02/17 05:20:14;;;;;;;;;9.50;4.25;;;;;12.93;56.07;100885.53;5080316;28;45394;-63
2022/02/17 05:22:44;;;;;;;;;7.50;3.25;;;;;12.93;56.01;100896.13;5081796;27;45220;-63
2022/02/17 05:25:12;;;;;;;;;13.75;5.25;;;;;12.91;56.11;100908.59;5081403;28;45373;-63
2022/02/17 05:27:39;;;;;;;;;6.25;4.25;;;;;12.90;55.94;100920.97;5081551;27;45367;-63
2022/02/17 05:30:05;;;;;;;;;12.50;5.00;;;;;12.88;55.96;100920.25;5081297;28;45196;-63
2022/02/17 05:32:31;;;;;;;;;14.25;5.00;;;;;12.85;55.69;100915.97;5081340;27;45275;-63
2022/02/17 05:34:56;;;;;;;;;15.50;6.00;;;;;12.84;55.64;100922.22;5081141;28;45620;-63
2022/02/17 05:37:22;;;;;;;;;8.75;4.00;;;;;12.82;55.78;100921.47;5072624;27;46189;-64
2022/02/17 05:39:47;;;;;;;;;5.75;2.50;;;;;12.81;55.85;100919.78;5098437;27;45338;-63
2022/02/17 05:42:13;;;;;;;;;13.50;4.00;;;;;12.80;55.90;100926.03;5081649;27;45320;-63
2022/02/17 05:44:38;;;;;;;;;13.00;5.00;;;;;12.78;55.71;100921.78;5081343;27;45352;-63
2022/02/17 05:47:04;;;;;;;;;11.25;4.00;;;;;12.76;55.46;100926.31;5081192;28;45426;-63
2022/02/17 05:49:30;;;;;;;;;9.75;4.00;;;;;12.75;55.58;100935.19;5088956;27;45416;-62
2022/02/17 05:51:55;;;;;;;;;14.00;3.25;;;;;12.72;55.68;100925.69;5081341;27;45284;-62
2022/02/17 05:54:21;;;;;;;;;9.25;4.25;;;;;12.71;55.48;100938.97;5076760;27;46284;-63
2022/02/17 05:56:46;;;;;;;;;13.75;4.00;;;;;12.71;55.90;100929.25;5081223;28;45975;-63
2022/02/17 05:59:12;;;;;;;;;6.25;3.25;;;;;12.69;55.74;100928.50;5080959;28;45478;-63
2022/02/17 06:01:37;;;;;;;;;11.75;4.75;;;;;12.66;55.71;100925.22;5081213;27;45241;-63
2022/02/17 06:04:03;;;;;;;;;10.75;3.75;;;;;12.64;55.80;100927.97;5081131;27;45413;-63
2022/02/17 06:06:29;;;;;;;;;6.75;3.00;;;;;12.60;55.81;100939.69;5105784;27;45827;-63
2022/02/17 06:08:54;;;;;;;;;5.25;4.00;;;;;12.58;56.12;100938.94;5086896;27;45260;-63
2022/02/17 06:11:20;;;;;;;;;6.00;3.75;;;;;12.54;56.20;100940.91;5108599;27;45213;-63
2022/02/17 06:13:45;;;;;;;;;11.00;7.00;;;;;12.55;56.21;100961.09;5094209;27;45316;-62
2022/02/17 06:16:11;;;;;;;;;10.00;4.00;;;;;12.57;56.51;100968.97;5111045;27;45340;-62
2022/02/17 06:18:36;;;;;;;;;17.50;6.00;;;;;12.63;56.82;100967.69;5107988;27;45395;-62
2022/02/17 06:21:02;;;;;;;;;10.00;5.00;;;;;12.66;56.63;100955.16;5109026;27;45345;-63
2022/02/17 06:23:27;;;;;;;;;27.50;7.25;;;;;12.66;57.03;100960.44;5104392;27;45426;-62
2022/02/17 06:25:53;;;;;;;;;10.50;4.75;;;;;12.66;56.99;100959.59;5088072;27;45320;-62
2022/02/17 06:28:19;;;;;;;;;13.25;4.00;;;;;12.67;56.93;100956.00;5111322;27;45353;-63
2022/02/17 06:30:45;;;;;;;;;10.00;4.50;;;;;12.69;57.16;100959.38;5110736;27;45344;-62
2022/02/17 06:33:11;;;;;;;;;10.25;5.00;;;;;12.71;57.15;100971.53;5109502;27;45591;-62
2022/02/17 06:35:38;;;;;;;;;21.25;7.50;;;;;12.75;57.26;100977.50;5111303;27;46096;-62
2022/02/17 06:38:06;;;;;;;;;18.25;8.25;;;;;12.74;57.57;100981.09;5110928;27;45438;-63
2022/02/17 06:40:32;;;;;;;;;14.50;8.75;;;;;12.72;57.45;100998.84;5113816;27;45389;-63
2022/02/17 06:43:09;;;;;;;;;10.00;5.00;;;;;12.72;57.79;101015.56;5111468;27;45458;-68
2022/02/17 06:45:37;;;;;;;;;10.25;5.00;;;;;12.71;57.81;101011.19;5111673;27;45385;-64
2022/02/17 06:48:04;;;;;;;;;13.25;7.50;;;;;12.70;57.71;100996.28;5088687;27;45316;-61
2022/02/17 06:50:30;;;;;;;;;10.25;5.50;;;;;12.70;57.66;101011.28;5091507;27;45320;-63
2022/02/17 06:52:55;;;;;;;;;9.75;5.00;;;;;12.70;57.74;101013.94;5083520;28;45255;-61
2022/02/17 06:55:21;;;;;;;;;8.50;5.50;;;;;12.68;57.75;101011.41;5083298;28;45288;-61
2022/02/17 06:57:46;;;;;;;;;14.75;9.00;;;;;12.69;57.83;101009.59;5083559;28;45289;-61
2022/02/17 07:00:12;;;;;;;;;12.75;8.00;;;;;12.68;57.99;101010.53;5083600;28;45474;-61
2022/02/17 07:02:38;;;;;;;;;13.25;5.50;;;;;12.67;57.79;101011.50;5089598;27;45496;-60
2022/02/17 07:05:05;;;;;;;;;18.25;8.75;;;;;12.67;57.71;101024.72;5083400;27;46091;-62
2022/02/17 07:07:35;;;;;;;;;19.50;8.25;;;;;12.67;57.71;101000.94;5083408;27;45514;-61
2022/02/17 07:10:03;;;;;;;;;19.25;8.25;;;;;12.68;57.67;101034.34;5083439;27;45246;-61
2022/02/17 07:12:28;;;;;;;;;9.00;5.50;;;;;12.66;57.74;101039.72;5104897;27;45478;-61
2022/02/17 07:14:57;;;;;;;;;10.75;4.50;;;;;12.67;57.78;101045.84;5083243;28;45480;-68
2022/02/17 07:17:24;;;;;;;;;16.25;4.75;;;;;12.67;58.02;101056.44;5083260;28;45386;-62
2022/02/17 07:19:49;;;;;;;;;17.50;6.25;;;;;12.66;57.94;101045.00;5083179;28;45374;-62
2022/02/17 07:22:14;;;;;;;;;16.75;6.00;;;;;12.63;57.73;101045.19;5093204;27;45568;-63
2022/02/17 07:24:40;;;;;;;;;20.25;5.75;;;;;12.62;57.84;101064.63;5095787;27;45221;-62
2022/02/17 07:27:06;;;;;;;;;11.25;5.25;;;;;12.62;57.70;101074.34;5099808;27;45271;-62
2022/02/17 07:29:32;;;;;;;;;19.00;5.00;;;;;12.62;57.78;101085.78;5085915;27;45347;-62
2022/02/17 07:31:57;;;;;;;;;14.00;4.75;;;;;12.62;57.48;101082.28;5098545;27;45447;-62
2022/02/17 07:34:23;;;;;;;;;6.50;5.00;;;;;12.57;57.63;101086.06;5088926;27;45645;-62
2022/02/17 07:36:48;;;;;;;;;16.00;10.00;;;;;12.60;57.65;101092.09;5095232;27;45256;-64
2022/02/17 07:39:14;;;;;;;;;17.75;6.50;;;;;12.62;57.45;101085.78;5088565;27;45403;-63
2022/02/17 07:41:39;;;;;;;;;17.50;5.25;;;;;12.62;57.55;101111.34;5083156;28;45341;-63
2022/02/17 07:44:07;;;;;;;;;17.25;8.75;;;;;12.60;57.59;101103.53;5081984;27;45680;-64
2022/02/17 07:46:34;;;;;;;;;16.50;4.50;;;;;12.62;57.91;101106.91;5082764;28;45286;-64
2022/02/17 07:49:00;;;;;;;;;14.50;8.00;;;;;12.66;57.54;101123.47;5085998;27;45290;-63
2022/02/17 07:51:27;;;;;;;;;15.50;6.50;;;;;12.67;57.47;101106.66;5087130;27;45331;-63
2022/02/17 07:53:53;;;;;;;;;15.75;10.00;;;;;12.66;57.43;101116.38;5096020;27;45445;-64
2022/02/17 07:56:19;;;;;;;;;14.75;5.00;;;;;12.64;56.86;101109.47;5086774;27;45310;-63
2022/02/17 07:58:44;;;;;;;;;12.50;5.50;;;;;12.63;57.31;101111.25;5095691;27;45453;-63
2022/02/17 08:01:10;;;;;;;;;11.50;4.25;;;;;12.63;57.33;101113.91;5087191;27;45312;-63
2022/02/17 08:03:36;;;;;;;;;13.50;7.50;;;;;12.64;57.43;101122.69;5082402;27;45971;-69
2022/02/17 08:06:03;;;;;;;;;16.00;11.00;;;;;12.69;57.51;101117.97;5082333;27;45343;-64
2022/02/17 08:08:28;;;;;;;;;11.50;8.00;;;;;12.77;57.28;101120.97;5082573;27;45326;-63
2022/02/17 08:10:54;;;;;;;;;14.50;6.50;;;;;12.84;57.34;101127.59;5092477;27;45395;-63
2022/02/17 08:13:20;;;;;;;;;13.00;6.25;;;;;12.95;56.97;101129.56;5082252;27;46523;-62
2022/02/17 08:15:46;;;;;;;;;19.00;9.25;;;;;12.99;57.20;101131.91;5081811;27;45239;-63
2022/02/17 08:18:12;;;;;;;;;16.75;6.25;;;;;13.05;57.23;101122.75;5073851;27;45360;-63
2022/02/17 08:20:38;;;;;;;;;17.25;9.00;;;;;13.12;57.14;101135.50;5094444;27;45714;-63
2022/02/17 08:23:04;;;;;;;;;12.00;7.50;;;;;13.15;56.87;101137.09;5097546;27;45423;-63
2022/02/17 08:25:30;;;;;;;;;13.00;6.00;;;;;13.13;56.99;101155.72;5101273;27;45442;-63
2022/02/17 08:27:56;;;;;;;;;19.75;7.00;;;;;13.17;56.93;101168.72;5101937;27;45316;-63
2022/02/17 08:30:22;;;;;;;;;17.00;7.75;;;;;13.16;57.13;101174.97;5100096;27;45449;-63
2022/02/17 08:32:48;;;;;;;;;19.00;4.50;;;;;13.14;57.12;101172.41;5099128;27;45598;-63
2022/02/17 08:35:14;;;;;;;;;19.75;5.75;;;;;13.16;57.41;101178.47;5100106;27;45442;-63
2022/02/17 08:37:41;;;;;;;;;15.25;5.75;;;;;13.18;57.07;101168.63;5082961;27;45356;-62
2022/02/17 08:40:11;;;;;;;;;13.75;6.75;;;;;13.22;57.23;101174.63;5064097;28;45451;-62
2022/02/17 08:42:37;;;;;;;;;11.75;6.00;;;;;13.27;56.92;101177.81;5101437;27;45307;-62
2022/02/17 08:45:04;;;;;;;;;20.25;6.00;;;;;13.26;57.02;101186.69;5089363;27;45453;-63
2022/02/17 08:47:29;;;;;;;;;11.75;6.75;;;;;13.29;57.31;101194.44;5081202;28;45385;-63
2022/02/17 08:49:55;;;;;;;;;13.50;10.00;;;;;13.30;57.10;101197.00;5081830;28;45193;-63
2022/02/17 08:52:21;;;;;;;;;13.50;9.00;;;;;13.34;57.14;101198.47;5081737;28;45546;-63
2022/02/17 08:54:47;;;;;;;;;14.00;9.50;;;;;13.37;57.17;101182.44;5081722;27;45415;-62
2022/02/17 08:57:13;;;;;;;;;17.75;6.75;;;;;13.41;56.87;101191.84;5087792;27;45369;-63
2022/02/17 08:59:39;;;;;;;;;3.00;3.00;;;;;13.49;56.61;101193.16;5102421;27;45383;-62
2022/02/17 09:02:04;;;;;;;;;16.50;6.25;;;;;13.56;57.09;101190.03;5093731;27;45392;-62
2022/02/17 09:04:32;;;;;;;;;10.25;8.50;;;;;13.64;57.04;101192.19;5081671;28;45418;-62
2022/02/17 09:06:58;;;;;;;;;15.50;7.25;;;;;13.67;56.77;101197.28;5081414;27;45319;-62
2022/02/17 09:09:24;;;;;;;;;17.50;7.75;;;;;13.66;56.67;101191.13;5081738;27;45232;-62
2022/02/17 09:11:50;;;;;;;;;12.75;8.75;;;;;13.63;56.74;101201.06;5081451;27;46238;-62
2022/02/17 09:14:15;;;;;;;;;17.50;8.50;;;;;13.65;56.56;101197.38;5081597;28;45238;-62
2022/02/17 09:16:41;;;;;;;;;13.50;5.50;;;;;13.65;56.07;101196.53;5083155;27;45212;-63
2022/02/17 09:19:07;;;;;;;;;17.25;7.50;;;;;13.60;56.58;101198.63;5088755;27;45355;-63
2022/02/17 09:21:33;;;;;;;;;15.25;6.25;;;;;13.59;56.59;101210.19;5086755;27;45362;-62
2022/02/17 09:23:58;;;;;;;;;18.25;8.75;;;;;13.55;56.46;101206.84;5089630;27;45519;-63
2022/02/17 09:26:24;;;;;;;;;19.50;8.75;;;;;13.54;56.74;101205.16;5088235;27;45480;-63
2022/02/17 09:28:50;;;;;;;;;19.25;7.00;;;;;13.51;56.63;101205.38;5081750;28;45341;-63
2022/02/17 09:31:19;;;;;;;;;11.75;4.75;;;;;13.51;56.82;101210.66;5090194;27;46222;-63
2022/02/17 09:33:54;;;;;;;;;18.00;7.00;;;;;13.49;56.78;101220.47;5087995;27;45295;-63
2022/02/17 09:36:21;;;;;;;;;18.50;7.50;;;;;13.50;56.86;101231.91;5093245;27;45332;-62
2022/02/17 09:38:47;;;;;;;;;14.50;10.00;;;;;13.51;56.63;101250.38;5082212;27;45390;-62
2022/02/17 09:41:18;;;;;;;;;13.00;5.75;;;;;13.45;56.53;101244.59;5081193;28;45397;-62
2022/02/17 09:43:45;;;;;;;;;25.00;9.25;;;;;13.43;56.38;101247.34;5081244;28;45226;-62
2022/02/17 09:46:21;;;;;;;;;12.75;9.50;;;;;13.40;56.53;101255.47;5081277;27;45414;-63
2022/02/17 09:48:56;;;;;;;;;23.75;5.25;;;;;13.43;56.46;101265.88;5081334;28;45436;-62
2022/02/17 09:51:25;;;;;;;;;11.00;6.75;;;;;13.49;56.53;101275.22;5080721;28;46342;-63
2022/02/17 09:53:51;;;;;;;;;12.25;6.00;;;;;13.55;56.29;101270.38;5081085;28;45273;-62
2022/02/17 09:56:18;;;;;;;;;21.25;8.25;;;;;13.62;55.84;101258.47;5081211;28;45296;-62
2022/02/17 09:58:43;;;;;;;;;18.50;9.25;;;;;13.69;55.84;101253.63;5081208;28;45535;-63
2022/02/17 10:01:16;;;;;;;;;15.00;7.75;;;;;13.75;55.90;101271.78;5080782;28;46532;-62
2022/02/17 10:03:42;;;;;;;;;12.75;5.25;;;;;13.82;55.76;101277.50;5081052;27;45301;-63
2022/02/17 10:06:10;;;;;;;;;14.25;5.50;;;;;13.83;55.58;101276.59;5080207;28;45219;-63
2022/02/17 10:08:37;;;;;;;;;10.00;4.00;;;;;13.85;55.54;101261.44;5080780;28;45227;-62
2022/02/17 10:11:04;;;;;;;;;9.25;6.50;;;;;13.91;55.50;101267.19;5080757;28;45357;-62
2022/02/17 10:13:30;;;;;;;;;10.50;5.25;;;;;14.01;55.69;101275.38;5080476;28;45322;-63
2022/02/17 10:15:58;;;;;;;;;23.75;11.50;;;;;14.18;55.50;101279.59;5080545;28;45307;-63
2022/02/17 10:18:27;;;;;;;;;11.50;5.00;;;;;14.29;55.01;101285.00;5080741;28;45609;-62
2022/02/17 10:21:02;;;;;;;;;11.00;5.50;;;;;14.34;54.88;101279.41;5080013;27;45473;-63
2022/02/17 10:23:31;;;;;;;;;15.75;11.25;;;;;14.30;54.85;101281.44;5100951;27;45511;-61
2022/02/17 10:26:02;;;;;;;;;10.00;2.75;;;;;14.28;54.76;101285.13;5082919;27;45392;-61
2022/02/17 10:28:29;;;;;;;;;15.00;9.00;;;;;14.27;54.71;101294.03;5080663;28;45479;-62
2022/02/17 10:30:56;;;;;;;;;16.75;5.75;;;;;14.20;54.51;101289.13;5080507;28;46218;-62
2022/02/17 10:33:22;;;;;;;;;20.00;10.00;;;;;14.21;54.51;101298.75;5083958;27;45294;-63
2022/02/17 10:35:58;;;;;;;;;8.75;4.50;;;;;14.32;54.69;101307.84;5081452;27;45456;-62
2022/02/17 10:38:23;;;;;;;;;10.25;6.50;;;;;14.36;54.62;101298.72;5080636;28;45387;-62
2022/02/17 10:40:52;;;;;;;;;17.00;5.25;;;;;14.36;54.59;101298.72;5091434;27;45476;-62
2022/02/17 10:43:18;;;;;;;;;9.00;4.50;;;;;14.32;54.03;101305.19;5080608;27;45284;-62
2022/02/17 10:45:48;;;;;;;;;13.75;5.00;;;;;14.26;54.69;101314.38;5080589;28;45322;-62
2022/02/17 10:48:26;;;;;;;;;11.50;5.50;;;;;14.18;54.08;101309.56;5080491;28;45245;-62
2022/02/17 10:51:12;;;;;;;;;14.75;6.50;;;;;14.16;54.46;101323.88;5080141;28;45451;-62
2022/02/17 10:53:40;;;;;;;;;11.00;6.00;;;;;14.20;54.22;101315.63;5080178;28;45421;-62
2022/02/17 10:56:08;;;;;;;;;21.50;5.00;;;;;14.26;54.27;101324.97;5080021;27;45350;-62
2022/02/17 10:58:37;;;;;;;;;14.00;4.50;;;;;14.34;53.57;101335.94;5080483;27;45475;-62
2022/02/17 11:01:08;;;;;;;;;12.25;7.25;;;;;14.40;53.89;101334.69;5079593;28;45354;-62
2022/02/17 11:03:35;;;;;;;;;17.50;6.25;;;;;14.45;53.45;101327.25;5080133;28;45414;-62
2022/02/17 11:06:01;;;;;;;;;15.50;5.25;;;;;14.46;52.91;101345.78;5080011;28;45248;-62
2022/02/17 11:08:27;;;;;;;;;4.25;4.00;;;;;14.53;52.92;101338.22;5080358;28;45359;-62
2022/02/17 11:10:53;;;;;;;;;15.00;4.25;;;;;14.60;52.37;101339.53;5079677;27;46001;-63
2022/02/17 11:13:25;;;;;;;;;5.75;3.75;;;;;14.62;52.37;101350.06;5080200;28;45432;-62
2022/02/17 11:15:52;;;;;;;;;7.25;6.00;;;;;14.72;52.33;101365.25;5079831;27;45280;-62
2022/02/17 11:18:19;;;;;;;;;8.25;4.00;;;;;14.78;50.98;101335.66;5080498;27;45347;-62
2022/02/17 11:20:48;;;;;;;;;7.25;3.25;;;;;14.69;51.28;101343.38;5083218;27;46189;-62